Aviation Digital Data Service (ADDS)

Output produced by METARs form (2310 UTC 15 February 2019)
found at http://www.aviationweather.gov/metar/data/
 
METAR text: ETMN 152220Z 19006KT 9999 09/00 Q1026 BLU+
Conditions at: ETMN (NORDHOLZ (GER-NA, DE) observed 2220 UTC 15 February 2019
Temperature: 9.0°C (48°F)
Dewpoint: 0.0°C (32°F) [RH = 53%]
Pressure (altimeter): 30.30 inches Hg (1026.0 mb)
Winds: from the S (190 degrees) at 7 MPH (6 knots; 3.1 m/s)
Visibility: 6 or more miles (10+ km)
Ceiling: unknown
Clouds: missing
Weather: no significant weather observed at this time

METAR text: ETMN 152120Z 18004KT 9999 09/00 Q1026 BLU+
Conditions at: ETMN (NORDHOLZ (GER-NA, DE) observed 2120 UTC 15 February 2019
Temperature: 9.0°C (48°F)
Dewpoint: 0.0°C (32°F) [RH = 53%]
Pressure (altimeter): 30.30 inches Hg (1026.0 mb)
Winds: from the S (180 degrees) at 5 MPH (4 knots; 2.1 m/s)
Visibility: 6 or more miles (10+ km)
Ceiling: unknown
Clouds: missing
Weather: no significant weather observed at this time

METAR text: ETMN 152020Z 19004KT 9999 08/00 Q1027 BLU+
Conditions at: ETMN (NORDHOLZ (GER-NA, DE) observed 2020 UTC 15 February 2019
Temperature: 8.0°C (46°F)
Dewpoint: 0.0°C (32°F) [RH = 57%]
Pressure (altimeter): 30.32 inches Hg (1027.0 mb)
Winds: from the S (190 degrees) at 5 MPH (4 knots; 2.1 m/s)
Visibility: 6 or more miles (10+ km)
Ceiling: unknown
Clouds: missing
Weather: no significant weather observed at this time

METAR text: ETMN 151920Z 18006KT 9999 10/01 Q1027 BLU+
Conditions at: ETMN (NORDHOLZ (GER-NA, DE) observed 1920 UTC 15 February 2019
Temperature: 10.0°C (50°F)
Dewpoint: 1.0°C (34°F) [RH = 53%]
Pressure (altimeter): 30.32 inches Hg (1027.0 mb)
Winds: from the S (180 degrees) at 7 MPH (6 knots; 3.1 m/s)
Visibility: 6 or more miles (10+ km)
Ceiling: unknown
Clouds: missing
Weather: no significant weather observed at this time

METAR text: ETMN 151820Z 18008KT 9999 FEW350 10/01 Q1028 BLU+
Conditions at: ETMN (NORDHOLZ (GER-NA, DE) observed 1820 UTC 15 February 2019
Temperature: 10.0°C (50°F)
Dewpoint: 1.0°C (34°F) [RH = 53%]
Pressure (altimeter): 30.35 inches Hg (1028.0 mb)
Winds: from the S (180 degrees) at 9 MPH (8 knots; 4.1 m/s)
Visibility: 6 or more miles (10+ km)
Ceiling: at least 12,000 feet AGL
Clouds: few clouds at 35000 feet AGL
Weather: no significant weather observed at this time

METAR text: ETMN 151720Z 17007KT 9999 FEW350 11/01 Q1028 BLU+
Conditions at: ETMN (NORDHOLZ (GER-NA, DE) observed 1720 UTC 15 February 2019
Temperature: 11.0°C (52°F)
Dewpoint: 1.0°C (34°F) [RH = 50%]
Pressure (altimeter): 30.35 inches Hg (1028.0 mb)
Winds: from the S (170 degrees) at 8 MPH (7 knots; 3.6 m/s)
Visibility: 6 or more miles (10+ km)
Ceiling: at least 12,000 feet AGL
Clouds: few clouds at 35000 feet AGL
Weather: no significant weather observed at this time

METAR text: ETMN 151620Z 17004KT 9999 FEW350 12/02 Q1028 BLU+FCST CANCEL
Conditions at: ETMN (NORDHOLZ (GER-NA, DE) observed 1620 UTC 15 February 2019
Temperature: 12.0°C (54°F)
Dewpoint: 2.0°C (36°F) [RH = 50%]
Pressure (altimeter): 30.35 inches Hg (1028.0 mb)
Winds: from the S (170 degrees) at 5 MPH (4 knots; 2.1 m/s)
Visibility: 6 or more miles (10+ km)
Ceiling: at least 12,000 feet AGL
Clouds: few clouds at 35000 feet AGL
Weather: no significant weather observed at this time

METAR text: ETMN 151520Z 17006KT 9999 FEW350 14/02 Q1029 BLU+BLU+
Conditions at: ETMN (NORDHOLZ (GER-NA, DE) observed 1520 UTC 15 February 2019
Temperature: 14.0°C (57°F)
Dewpoint: 2.0°C (36°F) [RH = 44%]
Pressure (altimeter): 30.38 inches Hg (1029.0 mb)
Winds: from the S (170 degrees) at 7 MPH (6 knots; 3.1 m/s)
Visibility: 6 or more miles (10+ km)
Ceiling: at least 12,000 feet AGL
Clouds: few clouds at 35000 feet AGL
Weather: no significant weather observed at this time

METAR text: ETMN 151420Z 18007KT 9999 FEW350 14/01 Q1030 BLU+BLU+
Conditions at: ETMN (NORDHOLZ (GER-NA, DE) observed 1420 UTC 15 February 2019
Temperature: 14.0°C (57°F)
Dewpoint: 1.0°C (34°F) [RH = 41%]
Pressure (altimeter): 30.41 inches Hg (1030.0 mb)
Winds: from the S (180 degrees) at 8 MPH (7 knots; 3.6 m/s)
Visibility: 6 or more miles (10+ km)
Ceiling: at least 12,000 feet AGL
Clouds: few clouds at 35000 feet AGL
Weather: no significant weather observed at this time

METAR text: ETMN 151320Z 19006KT 9999 SCT350 14/M00 Q1030 BLU+BLU+
Conditions at: ETMN (NORDHOLZ (GER-NA, DE) observed 1320 UTC 15 February 2019
Temperature: 14.0°C (57°F)
Dewpoint: 0.0°C (32°F) [RH = 38%]
Pressure (altimeter): 30.41 inches Hg (1030.0 mb)
Winds: from the S (190 degrees) at 7 MPH (6 knots; 3.1 m/s)
Visibility: 6 or more miles (10+ km)
Ceiling: at least 12,000 feet AGL
Clouds: scattered clouds at 35000 feet AGL
Weather: no significant weather observed at this time

METAR text: ETMN 151220Z 20005KT 9999 SCT350 13/M01 Q1031 BLU+BLU+
Conditions at: ETMN (NORDHOLZ (GER-NA, DE) observed 1220 UTC 15 February 2019
Temperature: 13.0°C (55°F)
Dewpoint: -1.0°C (30°F) [RH = 38%]
Pressure (altimeter): 30.44 inches Hg (1031.0 mb)
Winds: from the SSW (200 degrees) at 6 MPH (5 knots; 2.6 m/s)
Visibility: 6 or more miles (10+ km)
Ceiling: at least 12,000 feet AGL
Clouds: scattered clouds at 35000 feet AGL
Weather: no significant weather observed at this time

METAR text: ETMN 151120Z 20006KT 9999 SCT350 12/M02 Q1032 BLU+BLU+
Conditions at: ETMN (NORDHOLZ (GER-NA, DE) observed 1120 UTC 15 February 2019
Temperature: 12.0°C (54°F)
Dewpoint: -2.0°C (28°F) [RH = 38%]
Pressure (altimeter): 30.47 inches Hg (1032.0 mb)
Winds: from the SSW (200 degrees) at 7 MPH (6 knots; 3.1 m/s)
Visibility: 6 or more miles (10+ km)
Ceiling: at least 12,000 feet AGL
Clouds: scattered clouds at 35000 feet AGL
Weather: no significant weather observed at this time

METAR text: ETMN 151020Z 20005KT 9999 FEW350 10/M03 Q1032 BLU+BLU+
Conditions at: ETMN (NORDHOLZ (GER-NA, DE) observed 1020 UTC 15 February 2019
Temperature: 10.0°C (50°F)
Dewpoint: -3.0°C (27°F) [RH = 40%]
Pressure (altimeter): 30.47 inches Hg (1032.0 mb)
Winds: from the SSW (200 degrees) at 6 MPH (5 knots; 2.6 m/s)
Visibility: 6 or more miles (10+ km)
Ceiling: at least 12,000 feet AGL
Clouds: few clouds at 35000 feet AGL
Weather: no significant weather observed at this time

METAR text: ETMN 150920Z 20004KT 9999 FEW350 08/M03 Q1032 BLU+BLU+
Conditions at: ETMN (NORDHOLZ (GER-NA, DE) observed 0920 UTC 15 February 2019
Temperature: 8.0°C (46°F)
Dewpoint: -3.0°C (27°F) [RH = 46%]
Pressure (altimeter): 30.47 inches Hg (1032.0 mb)
Winds: from the SSW (200 degrees) at 5 MPH (4 knots; 2.1 m/s)
Visibility: 6 or more miles (10+ km)
Ceiling: at least 12,000 feet AGL
Clouds: few clouds at 35000 feet AGL
Weather: no significant weather observed at this time

METAR text: ETMN 150820Z 19003KT 9999 FEW350 03/M02 Q1033 BLU+BLU+
Conditions at: ETMN (NORDHOLZ (GER-NA, DE) observed 0820 UTC 15 February 2019
Temperature: 3.0°C (37°F)
Dewpoint: -2.0°C (28°F) [RH = 70%]
Pressure (altimeter): 30.50 inches Hg (1033.0 mb)
Winds: from the S (190 degrees) at 3 MPH (3 knots; 1.5 m/s)
Visibility: 6 or more miles (10+ km)
Ceiling: at least 12,000 feet AGL
Clouds: few clouds at 35000 feet AGL
Weather: no significant weather observed at this time

METAR text: ETMN 150720Z 19004KT 9999 FEW350 M01/M03 Q1032 BLU+BLU+
Conditions at: ETMN (NORDHOLZ (GER-NA, DE) observed 0720 UTC 15 February 2019
Temperature: -1.0°C (30°F)
Dewpoint: -3.0°C (27°F) [RH = 86%]
Pressure (altimeter): 30.47 inches Hg (1032.0 mb)
Winds: from the S (190 degrees) at 5 MPH (4 knots; 2.1 m/s)
Visibility: 6 or more miles (10+ km)
Ceiling: at least 12,000 feet AGL
Clouds: few clouds at 35000 feet AGL
Weather: no significant weather observed at this time

METAR text: ETMN 150620Z 19003KT 9999 FEW340 M01/M03 Q1032 BLU+BLU+
Conditions at: ETMN (NORDHOLZ (GER-NA, DE) observed 0620 UTC 15 February 2019
Temperature: -1.0°C (30°F)
Dewpoint: -3.0°C (27°F) [RH = 86%]
Pressure (altimeter): 30.47 inches Hg (1032.0 mb)
Winds: from the S (190 degrees) at 3 MPH (3 knots; 1.5 m/s)
Visibility: 6 or more miles (10+ km)
Ceiling: at least 12,000 feet AGL
Clouds: few clouds at 34000 feet AGL
Weather: no significant weather observed at this time

METAR text: ETMN 150520Z 21004KT 9999 FEW350 01/M03 Q1032 BLU+BLU+
Conditions at: ETMN (NORDHOLZ (GER-NA, DE) observed 0520 UTC 15 February 2019
Temperature: 1.0°C (34°F)
Dewpoint: -3.0°C (27°F) [RH = 75%]
Pressure (altimeter): 30.47 inches Hg (1032.0 mb)
Winds: from the SSW (210 degrees) at 5 MPH (4 knots; 2.1 m/s)
Visibility: 6 or more miles (10+ km)
Ceiling: at least 12,000 feet AGL
Clouds: few clouds at 35000 feet AGL
Weather: no significant weather observed at this time

METAR text: ETMN 150420Z 21006KT 9999 03/M02 Q1033 BLU+
Conditions at: ETMN (NORDHOLZ (GER-NA, DE) observed 0420 UTC 15 February 2019
Temperature: 3.0°C (37°F)
Dewpoint: -2.0°C (28°F) [RH = 70%]
Pressure (altimeter): 30.50 inches Hg (1033.0 mb)
Winds: from the SSW (210 degrees) at 7 MPH (6 knots; 3.1 m/s)
Visibility: 6 or more miles (10+ km)
Ceiling: unknown
Clouds: missing
Weather: no significant weather observed at this time

METAR text: ETMN 150320Z 22006KT 9999 FEW380 03/M02 Q1033 BLU+
Conditions at: ETMN (NORDHOLZ (GER-NA, DE) observed 0320 UTC 15 February 2019
Temperature: 3.0°C (37°F)
Dewpoint: -2.0°C (28°F) [RH = 70%]
Pressure (altimeter): 30.50 inches Hg (1033.0 mb)
Winds: from the SW (220 degrees) at 7 MPH (6 knots; 3.1 m/s)
Visibility: 6 or more miles (10+ km)
Ceiling: at least 12,000 feet AGL
Clouds: few clouds at 38000 feet AGL
Weather: no significant weather observed at this time

METAR text: ETMN 150220Z 22007KT 9999 FEW380 03/M02 Q1033 BLU+
Conditions at: ETMN (NORDHOLZ (GER-NA, DE) observed 0220 UTC 15 February 2019
Temperature: 3.0°C (37°F)
Dewpoint: -2.0°C (28°F) [RH = 70%]
Pressure (altimeter): 30.50 inches Hg (1033.0 mb)
Winds: from the SW (220 degrees) at 8 MPH (7 knots; 3.6 m/s)
Visibility: 6 or more miles (10+ km)
Ceiling: at least 12,000 feet AGL
Clouds: few clouds at 38000 feet AGL
Weather: no significant weather observed at this time

METAR text: ETMN 150120Z 22007KT 9999 FEW380 04/M01 Q1033 BLU+
Conditions at: ETMN (NORDHOLZ (GER-NA, DE) observed 0120 UTC 15 February 2019
Temperature: 4.0°C (39°F)
Dewpoint: -1.0°C (30°F) [RH = 70%]
Pressure (altimeter): 30.50 inches Hg (1033.0 mb)
Winds: from the SW (220 degrees) at 8 MPH (7 knots; 3.6 m/s)
Visibility: 6 or more miles (10+ km)
Ceiling: at least 12,000 feet AGL
Clouds: few clouds at 38000 feet AGL
Weather: no significant weather observed at this time

METAR text: ETMN 150020Z 22006KT 9999 FEW380 04/M01 Q1033 BLU+
Conditions at: ETMN (NORDHOLZ (GER-NA, DE) observed 0020 UTC 15 February 2019
Temperature: 4.0°C (39°F)
Dewpoint: -1.0°C (30°F) [RH = 70%]
Pressure (altimeter): 30.50 inches Hg (1033.0 mb)
Winds: from the SW (220 degrees) at 7 MPH (6 knots; 3.1 m/s)
Visibility: 6 or more miles (10+ km)
Ceiling: at least 12,000 feet AGL
Clouds: few clouds at 38000 feet AGL
Weather: no significant weather observed at this time

METAR text: ETMN 142320Z 21005KT 9999 FEW380 03/M01 Q1034 BLU+
Conditions at: ETMN (NORDHOLZ (GER-NA, DE) observed 2320 UTC 14 February 2019
Temperature: 3.0°C (37°F)
Dewpoint: -1.0°C (30°F) [RH = 75%]
Pressure (altimeter): 30.53 inches Hg (1034.0 mb)
Winds: from the SSW (210 degrees) at 6 MPH (5 knots; 2.6 m/s)
Visibility: 6 or more miles (10+ km)
Ceiling: at least 12,000 feet AGL
Clouds: few clouds at 38000 feet AGL
Weather: no significant weather observed at this time

METAR text: ETMN 142254Z 22004KT 9999 FEW380 03/M01 Q1034 BLU+FCST CANCEL
Conditions at: ETMN (NORDHOLZ (GER-NA, DE) observed 2254 UTC 14 February 2019
Temperature: 3.0°C (37°F)
Dewpoint: -1.0°C (30°F) [RH = 75%]
Pressure (altimeter): 30.53 inches Hg (1034.0 mb)
Winds: from the SW (220 degrees) at 5 MPH (4 knots; 2.1 m/s)
Visibility: 6 or more miles (10+ km)
Ceiling: at least 12,000 feet AGL
Clouds: few clouds at 38000 feet AGL
Weather: no significant weather observed at this time

METAR text: ETMN 142220Z 23004KT 9999 FEW380 04/M01 Q1034 BLU+BLU+
Conditions at: ETMN (NORDHOLZ (GER-NA, DE) observed 2220 UTC 14 February 2019
Temperature: 4.0°C (39°F)
Dewpoint: -1.0°C (30°F) [RH = 70%]
Pressure (altimeter): 30.53 inches Hg (1034.0 mb)
Winds: from the SW (230 degrees) at 5 MPH (4 knots; 2.1 m/s)
Visibility: 6 or more miles (10+ km)
Ceiling: at least 12,000 feet AGL
Clouds: few clouds at 38000 feet AGL
Weather: no significant weather observed at this time

METAR text: ETMN 142120Z 24005KT 9999 FEW380 04/M00 Q1034 BLU+BLU+
Conditions at: ETMN (NORDHOLZ (GER-NA, DE) observed 2120 UTC 14 February 2019
Temperature: 4.0°C (39°F)
Dewpoint: 0.0°C (32°F) [RH = 75%]
Pressure (altimeter): 30.53 inches Hg (1034.0 mb)
Winds: from the WSW (240 degrees) at 6 MPH (5 knots; 2.6 m/s)
Visibility: 6 or more miles (10+ km)
Ceiling: at least 12,000 feet AGL
Clouds: few clouds at 38000 feet AGL
Weather: no significant weather observed at this time

METAR text: ETMN 142020Z 23005KT 9999 SCT380 04/00 Q1033 BLU+BLU+
Conditions at: ETMN (NORDHOLZ (GER-NA, DE) observed 2020 UTC 14 February 2019
Temperature: 4.0°C (39°F)
Dewpoint: 0.0°C (32°F) [RH = 75%]
Pressure (altimeter): 30.50 inches Hg (1033.0 mb)
Winds: from the SW (230 degrees) at 6 MPH (5 knots; 2.6 m/s)
Visibility: 6 or more miles (10+ km)
Ceiling: at least 12,000 feet AGL
Clouds: scattered clouds at 38000 feet AGL
Weather: no significant weather observed at this time

METAR text: ETMN 141920Z 24004KT 9999 SCT350 05/01 Q1034 BLU+BLU+
Conditions at: ETMN (NORDHOLZ (GER-NA, DE) observed 1920 UTC 14 February 2019
Temperature: 5.0°C (41°F)
Dewpoint: 1.0°C (34°F) [RH = 75%]
Pressure (altimeter): 30.53 inches Hg (1034.0 mb)
Winds: from the WSW (240 degrees) at 5 MPH (4 knots; 2.1 m/s)
Visibility: 6 or more miles (10+ km)
Ceiling: at least 12,000 feet AGL
Clouds: scattered clouds at 35000 feet AGL
Weather: no significant weather observed at this time

METAR text: ETMN 141820Z 23007KT 9999 BKN370 06/01 Q1034 BLU+BLU+
Conditions at: ETMN (NORDHOLZ (GER-NA, DE) observed 1820 UTC 14 February 2019
Temperature: 6.0°C (43°F)
Dewpoint: 1.0°C (34°F) [RH = 70%]
Pressure (altimeter): 30.53 inches Hg (1034.0 mb)
Winds: from the SW (230 degrees) at 8 MPH (7 knots; 3.6 m/s)
Visibility: 6 or more miles (10+ km)
Ceiling: 37000 feet AGL
Clouds: broken clouds at 37000 feet AGL
Weather: no significant weather observed at this time

METAR text: ETMN 141720Z 23005KT 9999 BKN370 06/02 Q1034 BLU+BLU+
Conditions at: ETMN (NORDHOLZ (GER-NA, DE) observed 1720 UTC 14 February 2019
Temperature: 6.0°C (43°F)
Dewpoint: 2.0°C (36°F) [RH = 75%]
Pressure (altimeter): 30.53 inches Hg (1034.0 mb)
Winds: from the SW (230 degrees) at 6 MPH (5 knots; 2.6 m/s)
Visibility: 6 or more miles (10+ km)
Ceiling: 37000 feet AGL
Clouds: broken clouds at 37000 feet AGL
Weather: no significant weather observed at this time

METAR text: ETMN 141620Z 24004KT 9999 BKN350 07/02 Q1033 BLU+BLU+
Conditions at: ETMN (NORDHOLZ (GER-NA, DE) observed 1620 UTC 14 February 2019
Temperature: 7.0°C (45°F)
Dewpoint: 2.0°C (36°F) [RH = 70%]
Pressure (altimeter): 30.50 inches Hg (1033.0 mb)
Winds: from the WSW (240 degrees) at 5 MPH (4 knots; 2.1 m/s)
Visibility: 6 or more miles (10+ km)
Ceiling: 35000 feet AGL
Clouds: broken clouds at 35000 feet AGL
Weather: no significant weather observed at this time

METAR text: ETMN 141520Z 25006KT 9999 BKN300 09/02 Q1034 BLU+BLU+
Conditions at: ETMN (NORDHOLZ (GER-NA, DE) observed 1520 UTC 14 February 2019
Temperature: 9.0°C (48°F)
Dewpoint: 2.0°C (36°F) [RH = 61%]
Pressure (altimeter): 30.53 inches Hg (1034.0 mb)
Winds: from the WSW (250 degrees) at 7 MPH (6 knots; 3.1 m/s)
Visibility: 6 or more miles (10+ km)
Ceiling: 30000 feet AGL
Clouds: broken clouds at 30000 feet AGL
Weather: no significant weather observed at this time

METAR text: ETMN 141420Z 25008KT 9999 BKN300 10/02 Q1034 BLU+BLU+
Conditions at: ETMN (NORDHOLZ (GER-NA, DE) observed 1420 UTC 14 February 2019
Temperature: 10.0°C (50°F)
Dewpoint: 2.0°C (36°F) [RH = 57%]
Pressure (altimeter): 30.53 inches Hg (1034.0 mb)
Winds: from the WSW (250 degrees) at 9 MPH (8 knots; 4.1 m/s)
Visibility: 6 or more miles (10+ km)
Ceiling: 30000 feet AGL
Clouds: broken clouds at 30000 feet AGL
Weather: no significant weather observed at this time

METAR text: ETMN 141320Z 25008KT 9999 SCT300 10/03 Q1034 BLU+BLU+
Conditions at: ETMN (NORDHOLZ (GER-NA, DE) observed 1320 UTC 14 February 2019
Temperature: 10.0°C (50°F)
Dewpoint: 3.0°C (37°F) [RH = 62%]
Pressure (altimeter): 30.53 inches Hg (1034.0 mb)
Winds: from the WSW (250 degrees) at 9 MPH (8 knots; 4.1 m/s)
Visibility: 6 or more miles (10+ km)
Ceiling: at least 12,000 feet AGL
Clouds: scattered clouds at 30000 feet AGL
Weather: no significant weather observed at this time

METAR text: ETMN 141220Z 25007KT 9999 FEW300 09/04 Q1034 BLU+BLU+
Conditions at: ETMN (NORDHOLZ (GER-NA, DE) observed 1220 UTC 14 February 2019
Temperature: 9.0°C (48°F)
Dewpoint: 4.0°C (39°F) [RH = 71%]
Pressure (altimeter): 30.53 inches Hg (1034.0 mb)
Winds: from the WSW (250 degrees) at 8 MPH (7 knots; 3.6 m/s)
Visibility: 6 or more miles (10+ km)
Ceiling: at least 12,000 feet AGL
Clouds: few clouds at 30000 feet AGL
Weather: no significant weather observed at this time

METAR text: ETMN 141120Z 23008KT 9999 FEW300 07/03 Q1034 BLU+BLU+
Conditions at: ETMN (NORDHOLZ (GER-NA, DE) observed 1120 UTC 14 February 2019
Temperature: 7.0°C (45°F)
Dewpoint: 3.0°C (37°F) [RH = 76%]
Pressure (altimeter): 30.53 inches Hg (1034.0 mb)
Winds: from the SW (230 degrees) at 9 MPH (8 knots; 4.1 m/s)
Visibility: 6 or more miles (10+ km)
Ceiling: at least 12,000 feet AGL
Clouds: few clouds at 30000 feet AGL
Weather: no significant weather observed at this time

Forecast for: AMD
Text: TAF AMD ETMN 151525Z 1515/1521 19008KT 9999 NSW SCT350 CANCEL 1630
Forecast period: 1500 to 2100 UTC 15 February 2019
Forecast type: FROM: standard forecast or significant change
Winds: from the S (190 degrees) at 9 MPH (8 knots; 4.1 m/s)
Visibility: 6 or more miles 10+ km)
Ceiling: at least 12,000 feet AGL
Clouds: scattered clouds at 35000 feet AGL
Weather: NSW  (no significant weather)